Time;durP1;ratioP1;P1;durP2;ratioP2;P2;SDS_P1;SDS_P2;PMS_P1;PMS_P2;Temp;Humidity;BMP_temperature;BMP_pressure;BME280_temperature;BME280_humidity;BME280_pressure;Samples;Min_cycle;Max_cycle;Signal;HPM_P1;HPM_P2
2022/04/12 03:02:01;;;;;;;0.70;0.70;;;10.70;64.20;;;;;;5393866;23;20495;-79
2022/04/12 03:04:28;;;;;;;0.70;0.60;;;10.70;64.00;;;;;;4940335;29;20459;-79
2022/04/12 03:06:55;;;;;;;1.00;0.90;;;10.70;64.00;;;;;;4941615;29;20536;-77
2022/04/12 03:09:22;;;;;;;0.80;0.80;;;10.70;64.00;;;;;;4940095;29;20447;-77
2022/04/12 03:11:49;;;;;;;0.80;0.80;;;10.70;64.10;;;;;;4963012;29;20459;-76
2022/04/12 03:14:16;;;;;;;0.60;0.60;;;10.70;64.00;;;;;;4964174;28;20424;-76
2022/04/12 03:16:43;;;;;;;0.80;0.80;;;10.70;63.90;;;;;;4957804;29;20440;-77
2022/04/12 03:19:11;;;;;;;0.70;0.60;;;10.70;63.70;;;;;;4939005;29;20903;-77
2022/04/12 03:21:38;;;;;;;1.13;1.03;;;10.70;63.70;;;;;;4938912;29;20840;-77
2022/04/12 03:24:05;;;;;;;0.70;0.70;;;10.70;63.50;;;;;;4938635;29;20511;-77
2022/04/12 03:26:32;;;;;;;0.70;0.70;;;10.60;63.70;;;;;;4939025;29;20925;-77
2022/04/12 03:28:58;;;;;;;1.00;0.80;;;10.50;63.90;;;;;;4938695;29;20455;-77
2022/04/12 03:31:25;;;;;;;0.70;0.70;;;10.40;64.10;;;;;;4940559;29;20468;-77
2022/04/12 03:33:52;;;;;;;0.70;0.70;;;10.40;64.30;;;;;;4940435;29;20448;-77
2022/04/12 03:36:20;;;;;;;0.70;0.70;;;10.40;64.60;;;;;;4939913;29;20459;-77
2022/04/12 03:38:49;;;;;;;0.70;0.70;;;10.40;64.70;;;;;;4939831;29;20462;-77
2022/04/12 03:41:18;;;;;;;0.70;0.70;;;10.30;65.00;;;;;;4939024;29;20519;-77
2022/04/12 03:43:45;;;;;;;0.70;0.60;;;10.30;65.10;;;;;;4938685;29;20938;-77
2022/04/12 03:46:12;;;;;;;0.70;0.70;;;10.30;65.10;;;;;;4938566;29;20460;-77
2022/04/12 03:48:38;;;;;;;0.70;0.70;;;10.30;65.20;;;;;;4938598;29;20883;-77
2022/04/12 03:51:05;;;;;;;0.70;0.70;;;10.30;65.30;;;;;;4938849;29;20857;-77
2022/04/12 03:53:33;;;;;;;0.70;0.70;;;10.30;65.30;;;;;;4939107;29;20869;-77
2022/04/12 03:56:04;;;;;;;0.80;0.80;;;10.30;65.40;;;;;;4938526;29;20452;-77
2022/04/12 03:58:31;;;;;;;0.70;0.70;;;10.20;65.20;;;;;;4938222;29;20792;-77
2022/04/12 04:00:57;;;;;;;0.70;0.70;;;10.20;65.30;;;;;;4937947;29;21003;-76
2022/04/12 04:03:24;;;;;;;0.80;0.80;;;10.20;65.30;;;;;;4938460;29;20444;-77
2022/04/12 04:05:50;;;;;;;0.80;0.80;;;10.10;65.30;;;;;;4938227;29;20507;-77
2022/04/12 04:08:17;;;;;;;0.80;0.80;;;10.10;65.70;;;;;;4938085;29;20460;-77
2022/04/12 04:10:45;;;;;;;0.80;0.70;;;10.00;66.10;;;;;;4938016;29;20468;-76
2022/04/12 04:13:12;;;;;;;0.90;0.90;;;10.00;66.10;;;;;;4937966;29;20460;-77
2022/04/12 04:15:40;;;;;;;0.70;0.70;;;10.00;66.30;;;;;;4937983;29;20459;-77
2022/04/12 04:18:07;;;;;;;0.97;0.80;;;9.90;66.40;;;;;;4937984;29;20533;-78
2022/04/12 04:20:34;;;;;;;0.87;0.87;;;9.90;66.00;;;;;;4937826;29;20567;-78
2022/04/12 04:23:01;;;;;;;0.80;0.80;;;9.90;65.90;;;;;;4937915;29;20526;-78
2022/04/12 04:25:28;;;;;;;0.70;0.70;;;9.90;66.10;;;;;;4937885;29;20456;-77
2022/04/12 04:27:56;;;;;;;0.80;0.80;;;9.90;65.90;;;;;;4937831;29;20515;-78
2022/04/12 04:30:23;;;;;;;0.70;0.70;;;9.90;65.90;;;;;;4937714;29;20448;-78
2022/04/12 04:32:50;;;;;;;0.80;0.80;;;9.80;66.00;;;;;;4936961;29;20454;-78
2022/04/12 04:35:17;;;;;;;0.77;0.77;;;9.80;65.80;;;;;;4937797;29;20477;-77
2022/04/12 04:37:44;;;;;;;1.00;0.70;;;9.80;65.90;;;;;;4937599;29;20507;-78
2022/04/12 04:40:14;;;;;;;0.80;0.70;;;9.70;65.90;;;;;;4937543;29;20476;-78
2022/04/12 04:42:44;;;;;;;0.80;0.80;;;9.70;66.00;;;;;;4937548;29;20475;-78
2022/04/12 04:45:12;;;;;;;0.70;0.70;;;9.60;66.10;;;;;;4937677;29;20476;-78
2022/04/12 04:47:49;;;;;;;0.80;0.80;;;9.60;66.30;;;;;;4937476;29;20586;-77
2022/04/12 04:50:16;;;;;;;0.70;0.67;;;9.60;66.60;;;;;;4937465;29;20523;-77
2022/04/12 04:52:42;;;;;;;0.80;0.80;;;9.60;66.70;;;;;;4937319;29;20476;-78
2022/04/12 04:55:10;;;;;;;0.80;0.70;;;9.60;66.70;;;;;;4937423;29;20463;-78
2022/04/12 04:57:38;;;;;;;1.30;0.80;;;9.60;66.50;;;;;;4937095;29;20503;-78
2022/04/12 05:00:06;;;;;;;0.73;0.73;;;9.60;66.60;;;;;;4937293;29;20515;-78
2022/04/12 05:02:34;;;;;;;0.70;0.67;;;9.60;66.60;;;;;;4937000;29;20491;-77
2022/04/12 05:05:02;;;;;;;0.70;0.70;;;9.60;66.80;;;;;;4937238;29;20460;-78
2022/04/12 05:07:29;;;;;;;0.90;0.90;;;9.60;66.90;;;;;;4937278;29;20459;-78
2022/04/12 05:09:55;;;;;;;0.70;0.70;;;9.70;67.00;;;;;;4937183;29;20510;-78
2022/04/12 05:12:22;;;;;;;0.70;0.70;;;9.70;67.10;;;;;;4937146;29;20472;-78
2022/04/12 05:14:48;;;;;;;0.90;0.70;;;9.70;67.10;;;;;;4937103;29;20452;-78
2022/04/12 05:17:24;;;;;;;1.10;0.80;;;9.70;67.20;;;;;;4936872;29;20939;-78
2022/04/12 05:19:52;;;;;;;1.00;1.00;;;9.80;67.10;;;;;;4937216;29;20447;-78
2022/04/12 05:22:19;;;;;;;1.37;0.80;;;9.80;66.90;;;;;;4936882;29;20578;-78
2022/04/12 05:24:46;;;;;;;0.80;0.80;;;9.90;66.60;;;;;;4937166;29;20499;-78
2022/04/12 05:27:12;;;;;;;0.80;0.77;;;9.90;66.40;;;;;;4936776;29;20903;-78
2022/04/12 05:29:39;;;;;;;1.10;1.00;;;10.00;66.40;;;;;;4936691;29;20452;-77
2022/04/12 05:32:08;;;;;;;1.00;0.87;;;10.10;66.00;;;;;;4936678;29;20534;-77
2022/04/12 05:34:34;;;;;;;1.00;0.70;;;10.20;65.70;;;;;;4937059;29;20558;-77
2022/04/12 05:37:02;;;;;;;0.80;0.80;;;10.30;66.20;;;;;;4937328;29;20447;-78
2022/04/12 05:39:29;;;;;;;1.00;0.73;;;10.60;66.20;;;;;;4937020;29;20451;-77
2022/04/12 05:42:00;;;;;;;0.70;0.70;;;10.80;65.90;;;;;;4936507;29;20487;-77
2022/04/12 05:44:26;;;;;;;0.80;0.80;;;11.10;66.10;;;;;;4936419;29;20491;-78
2022/04/12 05:46:53;;;;;;;1.03;0.93;;;11.40;65.00;;;;;;4936414;29;20475;-78
2022/04/12 05:49:20;;;;;;;0.70;0.70;;;11.50;64.00;;;;;;4936592;29;20519;-78
2022/04/12 05:51:46;;;;;;;0.80;0.77;;;11.60;62.80;;;;;;4936574;29;20476;-78
2022/04/12 05:54:14;;;;;;;0.70;0.70;;;11.60;63.50;;;;;;4936560;29;20519;-78
2022/04/12 05:56:41;;;;;;;0.70;0.70;;;11.70;63.50;;;;;;4937781;29;20444;-78
2022/04/12 05:59:08;;;;;;;0.70;0.70;;;11.80;63.10;;;;;;4939796;29;20531;-77
2022/04/12 06:01:34;;;;;;;1.60;0.80;;;11.90;62.90;;;;;;4936244;29;20511;-78
2022/04/12 06:04:01;;;;;;;0.70;0.70;;;12.10;63.00;;;;;;4936188;29;20959;-77
2022/04/12 06:06:28;;;;;;;0.80;0.80;;;12.50;62.20;;;;;;4936466;29;20488;-77
2022/04/12 06:08:55;;;;;;;0.73;0.73;;;13.20;61.50;;;;;;4936540;29;20498;-77
2022/04/12 06:11:23;;;;;;;0.80;0.80;;;14.10;60.20;;;;;;4936016;29;20500;-77
2022/04/12 06:13:49;;;;;;;0.80;0.80;;;15.40;57.70;;;;;;4936086;29;20451;-77
2022/04/12 06:16:16;;;;;;;0.80;0.80;;;16.70;54.40;;;;;;4936187;29;20456;-78
2022/04/12 06:18:42;;;;;;;0.70;0.70;;;17.80;51.20;;;;;;4936388;29;20448;-77
2022/04/12 06:21:09;;;;;;;0.70;0.70;;;18.50;50.40;;;;;;4936261;29;20547;-77
2022/04/12 06:23:36;;;;;;;0.80;0.80;;;18.80;48.70;;;;;;4936317;29;20538;-78
2022/04/12 06:26:03;;;;;;;0.70;0.70;;;18.00;48.30;;;;;;4936321;29;20455;-77
2022/04/12 06:28:31;;;;;;;0.70;0.70;;;17.20;50.90;;;;;;4936066;29;20499;-78
2022/04/12 06:30:58;;;;;;;0.63;0.60;;;17.50;50.90;;;;;;4936263;29;20534;-77
2022/04/12 06:33:24;;;;;;;0.70;0.70;;;17.20;50.30;;;;;;4936373;29;20456;-78
2022/04/12 06:35:51;;;;;;;0.83;0.80;;;17.00;50.80;;;;;;4936435;29;20459;-78
2022/04/12 06:38:18;;;;;;;0.70;0.70;;;17.70;50.00;;;;;;4937320;29;20455;-78
2022/04/12 06:40:45;;;;;;;0.80;0.67;;;18.60;48.70;;;;;;4937124;29;20566;-78
2022/04/12 06:43:12;;;;;;;0.70;0.70;;;18.70;49.40;;;;;;4937464;29;21006;-78
2022/04/12 06:45:40;;;;;;;0.80;0.67;;;18.80;48.80;;;;;;4937365;29;21089;-78
2022/04/12 06:48:08;;;;;;;0.70;0.70;;;19.30;48.90;;;;;;4937470;29;20515;-78
2022/04/12 06:50:35;;;;;;;0.73;0.73;;;19.20;47.90;;;;;;4937399;29;20456;-78
2022/04/12 06:53:04;;;;;;;0.80;0.80;;;19.50;47.10;;;;;;4935800;29;20507;-78
2022/04/12 06:55:31;;;;;;;0.77;0.77;;;18.60;48.10;;;;;;4936047;29;20456;-78
2022/04/12 06:57:58;;;;;;;0.70;0.70;;;18.00;50.00;;;;;;4939450;29;20451;-78
2022/04/12 07:00:25;;;;;;;0.70;0.70;;;17.20;51.00;;;;;;4939225;29;21010;-78
2022/04/12 07:02:53;;;;;;;0.90;0.80;;;16.80;51.00;;;;;;4939020;29;20972;-77
2022/04/12 07:05:20;;;;;;;0.80;0.70;;;16.60;51.60;;;;;;4939343;29;20461;-78
2022/04/12 07:07:47;;;;;;;0.70;0.70;;;16.70;52.10;;;;;;4939324;29;20456;-78
2022/04/12 07:10:16;;;;;;;0.80;0.80;;;15.90;52.40;;;;;;4939465;29;20507;-78
2022/04/12 07:12:43;;;;;;;0.90;0.90;;;15.60;53.90;;;;;;4939342;29;20470;-78
2022/04/12 07:15:11;;;;;;;0.70;0.70;;;15.40;53.00;;;;;;4939280;29;20457;-77
2022/04/12 07:17:38;;;;;;;0.70;0.70;;;15.10;53.70;;;;;;4939269;29;20460;-78
2022/04/12 07:20:07;;;;;;;0.80;0.80;;;14.80;55.40;;;;;;4939438;29;20455;-78
2022/04/12 07:22:33;;;;;;;0.80;0.80;;;14.20;55.80;;;;;;4938765;29;21065;-77
2022/04/12 07:25:00;;;;;;;0.83;0.83;;;14.20;55.20;;;;;;4938610;29;20929;-78
2022/04/12 07:27:27;;;;;;;0.80;0.80;;;14.20;57.00;;;;;;4938979;29;20464;-77
2022/04/12 07:29:53;;;;;;;0.70;0.70;;;14.20;55.20;;;;;;4938735;29;20999;-78
2022/04/12 07:32:20;;;;;;;0.73;0.73;;;14.10;56.40;;;;;;4938930;29;20476;-78
2022/04/12 07:34:47;;;;;;;0.80;0.80;;;14.20;57.00;;;;;;4939093;29;20451;-77
2022/04/12 07:37:16;;;;;;;0.80;0.80;;;14.70;56.00;;;;;;4938808;29;20460;-78
2022/04/12 07:39:43;;;;;;;0.73;0.73;;;15.20;55.60;;;;;;4938747;29;20546;-78
2022/04/12 07:42:09;;;;;;;0.80;0.80;;;15.60;55.00;;;;;;4938497;29;20491;-78
2022/04/12 07:44:36;;;;;;;0.80;0.80;;;15.80;54.80;;;;;;4938559;29;20451;-78
2022/04/12 07:47:03;;;;;;;0.70;0.70;;;16.10;53.80;;;;;;4938635;29;20502;-78
2022/04/12 07:49:29;;;;;;;0.70;0.70;;;16.30;53.30;;;;;;4938634;29;20451;-78
2022/04/12 07:51:56;;;;;;;0.70;0.70;;;16.30;53.40;;;;;;4938415;29;20467;-78
2022/04/12 07:54:24;;;;;;;0.70;0.67;;;16.00;52.90;;;;;;4938416;29;20467;-78
2022/04/12 07:56:51;;;;;;;0.80;0.80;;;16.30;52.60;;;;;;4938269;29;20456;-77
2022/04/12 07:59:18;;;;;;;0.77;0.77;;;16.60;51.40;;;;;;4942808;29;20454;-77
2022/04/12 08:01:44;;;;;;;0.73;0.73;;;16.30;51.30;;;;;;4937578;29;21055;-77
2022/04/12 08:04:11;;;;;;;0.70;0.63;;;16.40;53.20;;;;;;4938172;29;20448;-77
2022/04/12 08:06:38;;;;;;;0.70;0.70;;;16.60;53.20;;;;;;4938277;29;20456;-77
2022/04/12 08:09:06;;;;;;;0.70;0.70;;;16.90;50.70;;;;;;4940877;29;20531;-77
2022/04/12 08:11:34;;;;;;;0.70;0.70;;;17.20;51.00;;;;;;4939656;29;20475;-77
2022/04/12 08:14:00;;;;;;;0.70;0.63;;;17.50;49.60;;;;;;4938701;29;20452;-78
2022/04/12 08:16:27;;;;;;;0.80;0.80;;;17.50;47.40;;;;;;4938074;29;20515;-78
2022/04/12 08:18:55;;;;;;;0.70;0.70;;;17.30;49.50;;;;;;4937830;29;20483;-78
2022/04/12 08:21:32;;;;;;;0.70;0.70;;;17.30;49.20;;;;;;4937699;29;20475;-78
2022/04/12 08:23:59;;;;;;;0.60;0.60;;;17.20;49.50;;;;;;4938912;29;20451;-78
2022/04/12 08:26:26;;;;;;;0.60;0.60;;;17.10;50.40;;;;;;4937492;29;20459;-78
2022/04/12 08:28:54;;;;;;;0.70;0.70;;;17.40;50.80;;;;;;4937941;29;20462;-77
2022/04/12 08:31:20;;;;;;;0.70;0.60;;;17.60;49.60;;;;;;4937635;29;20472;-78
2022/04/12 08:33:47;;;;;;;0.60;0.60;;;17.60;48.40;;;;;;4937966;29;20448;-77
2022/04/12 08:36:16;;;;;;;0.60;0.60;;;17.50;48.50;;;;;;4937747;29;20465;-77
2022/04/12 08:38:44;;;;;;;0.70;0.63;;;17.50;50.00;;;;;;4937542;29;20939;-78
2022/04/12 08:41:11;;;;;;;0.70;0.70;;;17.60;48.00;;;;;;4937985;29;20538;-78
2022/04/12 08:43:40;;;;;;;0.70;0.70;;;17.10;48.50;;;;;;4937650;29;20484;-77
2022/04/12 08:46:09;;;;;;;0.60;0.60;;;17.20;49.50;;;;;;4937641;29;20448;-78
2022/04/12 08:48:36;;;;;;;0.70;0.70;;;17.30;48.40;;;;;;4937526;29;20499;-77
2022/04/12 08:51:03;;;;;;;0.60;0.60;;;17.20;49.00;;;;;;4937255;29;20472;-77
2022/04/12 08:53:30;;;;;;;0.80;0.60;;;17.10;49.00;;;;;;4937321;29;20444;-78
2022/04/12 08:55:56;;;;;;;1.17;0.70;;;17.10;49.90;;;;;;4937205;29;20463;-78
2022/04/12 08:58:23;;;;;;;0.70;0.60;;;17.30;49.20;;;;;;4937263;29;20499;-78
2022/04/12 09:00:51;;;;;;;0.67;0.60;;;17.40;49.20;;;;;;4936960;29;20530;-77
2022/04/12 09:03:19;;;;;;;0.70;0.60;;;17.50;48.00;;;;;;4937229;29;20884;-77
2022/04/12 09:05:45;;;;;;;0.70;0.70;;;17.50;47.50;;;;;;4936948;29;21027;-77
2022/04/12 09:08:33;;;;;;;0.70;0.70;;;17.40;47.70;;;;;;4937288;29;20456;-77
2022/04/12 09:11:02;;;;;;;0.67;0.60;;;17.40;48.20;;;;;;4932399;29;20556;-78
2022/04/12 09:13:29;;;;;;;0.80;0.60;;;17.40;48.80;;;;;;4936944;29;20447;-75
2022/04/12 09:15:56;;;;;;;0.70;0.60;;;17.40;48.70;;;;;;4938621;29;20455;-75
2022/04/12 09:18:36;;;;;;;0.70;0.70;;;17.70;48.80;;;;;;4936992;29;20447;-75
2022/04/12 09:21:13;;;;;;;0.70;0.60;;;17.80;49.00;;;;;;4936604;29;20471;-74
2022/04/12 09:23:48;;;;;;;0.60;0.60;;;18.00;47.90;;;;;;4936684;29;20554;-74
2022/04/12 09:26:17;;;;;;;0.70;0.60;;;18.00;48.10;;;;;;4936687;29;20447;-75
2022/04/12 09:28:44;;;;;;;0.70;0.63;;;18.20;47.30;;;;;;4936259;29;20903;-76
2022/04/12 09:31:12;;;;;;;0.70;0.60;;;18.20;47.20;;;;;;4936445;29;20531;-75
2022/04/12 09:33:41;;;;;;;0.70;0.60;;;18.00;47.70;;;;;;4936086;29;20876;-75
2022/04/12 09:36:08;;;;;;;0.60;0.60;;;18.10;47.50;;;;;;4936463;29;20455;-75
2022/04/12 09:38:36;;;;;;;0.60;0.53;;;18.30;46.50;;;;;;4936485;29;20456;-75
2022/04/12 09:41:20;;;;;;;0.67;0.60;;;18.60;46.50;;;;;;4936350;29;20483;-75
2022/04/12 09:44:08;;;;;;;0.73;0.73;;;18.90;45.60;;;;;;4936533;29;20480;-75
2022/04/12 09:46:36;;;;;;;0.60;0.60;;;19.10;44.80;;;;;;4931595;29;20459;-75
2022/04/12 09:49:05;;;;;;;0.70;0.67;;;19.10;45.60;;;;;;4936288;29;20456;-76
2022/04/12 09:51:34;;;;;;;0.90;0.90;;;19.30;46.00;;;;;;4936154;29;20471;-74
2022/04/12 09:54:01;;;;;;;0.70;0.70;;;19.40;51.10;;;;;;4936205;29;20518;-76
2022/04/12 09:56:29;;;;;;;0.80;0.80;;;19.50;51.50;;;;;;4936176;29;20450;-75
2022/04/12 09:58:58;;;;;;;0.90;0.80;;;19.60;51.30;;;;;;4936122;29;20452;-75
2022/04/12 10:01:27;;;;;;;0.80;0.80;;;19.70;54.00;;;;;;4935769;29;20546;-76
2022/04/12 10:03:55;;;;;;;0.70;0.70;;;19.80;52.20;;;;;;4935578;29;21082;-76
2022/04/12 10:06:25;;;;;;;0.93;0.93;;;19.80;50.60;;;;;;4935763;29;20484;-75
2022/04/12 10:08:56;;;;;;;0.80;0.80;;;19.80;49.80;;;;;;4936020;29;20456;-74
2022/04/12 10:11:24;;;;;;;1.53;0.90;;;19.60;51.30;;;;;;4935672;29;21011;-75
2022/04/12 10:13:51;;;;;;;1.43;0.80;;;19.80;52.00;;;;;;4936109;29;20455;-75
2022/04/12 10:16:22;;;;;;;0.70;0.70;;;20.00;51.60;;;;;;4935844;29;20464;-75
2022/04/12 10:18:49;;;;;;;1.00;0.90;;;19.90;49.40;;;;;;4936057;29;20428;-76
2022/04/12 10:21:16;;;;;;;0.70;0.70;;;19.90;50.10;;;;;;4936172;29;20833;-76
2022/04/12 10:23:51;;;;;;;0.80;0.80;;;20.00;49.80;;;;;;4935866;29;20491;-74
2022/04/12 10:26:21;;;;;;;0.80;0.80;;;20.10;50.30;;;;;;4936008;29;20487;-75
2022/04/12 10:28:52;;;;;;;0.70;0.70;;;20.20;49.30;;;;;;4936182;29;20850;-75
2022/04/12 10:31:21;;;;;;;0.70;0.70;;;20.00;48.60;;;;;;4936889;29;20482;-76
2022/04/12 10:34:05;;;;;;;0.83;0.83;;;19.80;49.40;;;;;;4939806;29;20550;-75
2022/04/12 10:37:03;;;;;;;0.70;0.70;;;19.90;51.00;;;;;;4939404;29;20907;-76
2022/04/12 10:39:34;;;;;;;0.90;0.80;;;20.10;51.10;;;;;;4939607;29;20454;-76
2022/04/12 10:42:04;;;;;;;0.80;0.80;;;19.90;49.90;;;;;;4939494;29;20468;-76
2022/04/12 10:44:37;;;;;;;0.77;0.77;;;19.90;50.60;;;;;;4939492;29;20555;-76
2022/04/12 10:47:04;;;;;;;0.90;0.73;;;19.80;51.30;;;;;;4939563;29;20436;-76
2022/04/12 10:49:36;;;;;;;0.73;0.73;;;20.00;52.30;;;;;;4939150;29;20944;-75
2022/04/12 10:52:08;;;;;;;0.80;0.80;;;20.20;51.40;;;;;;4939460;29;20539;-75
2022/04/12 10:54:37;;;;;;;1.00;1.00;;;20.30;50.90;;;;;;4939609;29;20436;-76
2022/04/12 10:57:26;;;;;;;0.80;0.80;;;20.40;50.10;;;;;;4939485;29;20456;-74
2022/04/12 10:59:55;;;;;;;0.90;0.90;;;20.30;50.30;;;;;;4939411;29;20467;-75
2022/04/12 11:02:22;;;;;;;2.50;0.70;;;20.40;49.40;;;;;;4938837;29;20912;-75
2022/04/12 11:04:49;;;;;;;0.70;0.70;;;20.60;49.40;;;;;;4939396;29;20539;-75
2022/04/12 11:07:37;;;;;;;1.07;0.80;;;20.80;48.90;;;;;;4939373;29;20455;-75
2022/04/12 11:10:22;;;;;;;0.70;0.60;;;21.00;48.60;;;;;;4935098;29;20462;-75
2022/04/12 11:12:50;;;;;;;1.00;0.90;;;21.20;49.60;;;;;;4939306;29;20442;-74
2022/04/12 11:15:26;;;;;;;0.80;0.70;;;21.40;48.70;;;;;;4940836;29;20447;-74
2022/04/12 11:18:07;;;;;;;1.17;0.70;;;21.40;47.50;;;;;;4940215;29;20458;-74
2022/04/12 11:20:35;;;;;;;0.70;0.70;;;21.70;48.80;;;;;;4940868;29;20842;-76
2022/04/12 11:23:08;;;;;;;0.70;0.60;;;22.00;48.10;;;;;;4941231;29;20607;-75
2022/04/12 11:25:45;;;;;;;1.17;0.80;;;22.00;45.60;;;;;;4940922;29;20438;-75
2022/04/12 11:28:15;;;;;;;0.80;0.77;;;22.20;47.20;;;;;;4939988;29;20912;-75
2022/04/12 11:30:42;;;;;;;0.70;0.70;;;22.20;46.70;;;;;;4940104;29;20459;-75
2022/04/12 11:33:10;;;;;;;0.80;0.80;;;22.00;45.20;;;;;;4939794;29;20451;-76
2022/04/12 11:35:39;;;;;;;0.80;0.80;;;21.90;46.20;;;;;;4939878;29;20463;-75
2022/04/12 11:38:06;;;;;;;0.70;0.60;;;21.70;45.70;;;;;;4940068;29;20510;-75
2022/04/12 11:40:33;;;;;;;1.07;0.60;;;21.80;45.90;;;;;;4939647;29;21003;-75
2022/04/12 11:43:01;;;;;;;0.70;0.70;;;21.90;46.10;;;;;;4938713;29;20494;-75
2022/04/12 11:45:32;;;;;;;0.80;0.77;;;21.80;45.80;;;;;;4938510;29;20463;-75
2022/04/12 11:47:59;;;;;;;0.87;0.87;;;21.70;45.60;;;;;;4938302;29;20534;-76
2022/04/12 11:50:25;;;;;;;0.80;0.70;;;21.80;45.20;;;;;;4938150;29;20881;-76
2022/04/12 11:52:52;;;;;;;0.70;0.60;;;21.60;46.30;;;;;;4938544;29;20499;-76
2022/04/12 11:55:19;;;;;;;0.70;0.70;;;21.70;46.80;;;;;;4938415;29;20456;-75
2022/04/12 11:57:45;;;;;;;0.70;0.70;;;21.80;46.50;;;;;;4938425;29;20503;-75
2022/04/12 12:00:14;;;;;;;0.93;0.70;;;22.00;45.80;;;;;;4938227;29;20485;-75
2022/04/12 12:02:42;;;;;;;0.93;0.70;;;22.20;46.20;;;;;;4937799;29;20546;-74
2022/04/12 12:05:12;;;;;;;0.90;0.80;;;22.20;45.70;;;;;;4939548;29;20456;-75
2022/04/12 12:07:40;;;;;;;0.67;0.60;;;22.30;44.80;;;;;;4939393;29;20464;-76
2022/04/12 12:10:09;;;;;;;0.90;0.80;;;22.20;45.00;;;;;;4938672;29;20456;-75
2022/04/12 12:12:38;;;;;;;1.00;0.70;;;22.10;44.80;;;;;;4939138;29;20477;-75
2022/04/12 12:15:21;;;;;;;0.80;0.70;;;22.20;45.40;;;;;;4938713;29;20459;-75
2022/04/12 12:17:49;;;;;;;0.73;0.67;;;22.20;45.80;;;;;;4938691;29;20432;-74
2022/04/12 12:20:18;;;;;;;0.70;0.60;;;22.20;44.80;;;;;;4938867;29;20811;-75
2022/04/12 12:22:46;;;;;;;1.73;0.70;;;22.50;44.60;;;;;;4939778;29;20519;-75
2022/04/12 12:25:19;;;;;;;0.63;0.50;;;22.50;44.10;;;;;;4940553;29;20464;-75
2022/04/12 12:27:50;;;;;;;0.90;0.80;;;22.40;43.90;;;;;;4937825;29;20514;-76
2022/04/12 12:30:20;;;;;;;0.70;0.60;;;22.50;43.60;;;;;;4937537;29;20443;-76
2022/04/12 12:32:51;;;;;;;0.70;0.70;;;22.50;42.80;;;;;;4937594;29;20523;-76
2022/04/12 12:35:18;;;;;;;0.70;0.67;;;22.70;44.40;;;;;;4937947;29;20444;-76
2022/04/12 12:37:47;;;;;;;0.90;0.60;;;22.70;44.50;;;;;;4937627;29;20456;-76
2022/04/12 12:40:19;;;;;;;0.70;0.63;;;22.70;43.10;;;;;;4937639;29;20503;-76
2022/04/12 12:42:46;;;;;;;1.07;0.73;;;22.70;43.70;;;;;;4937004;29;20991;-76
2022/04/12 12:45:15;;;;;;;0.70;0.63;;;22.70;44.20;;;;;;4937329;29;20436;-76
2022/04/12 12:47:45;;;;;;;0.70;0.60;;;22.80;43.90;;;;;;4937368;29;20456;-75
2022/04/12 12:50:12;;;;;;;0.80;0.80;;;22.70;44.50;;;;;;4937367;29;20504;-76
2022/04/12 12:52:40;;;;;;;0.70;0.60;;;22.50;42.00;;;;;;4937197;29;20479;-75
2022/04/12 12:55:08;;;;;;;0.80;0.60;;;22.40;43.90;;;;;;4936586;29;20459;-76
2022/04/12 12:57:40;;;;;;;0.70;0.60;;;22.70;42.80;;;;;;4937201;29;20448;-75
2022/04/12 13:00:10;;;;;;;0.70;0.57;;;22.80;44.00;;;;;;4937005;29;20444;-75
2022/04/12 13:02:37;;;;;;;0.70;0.60;;;22.90;43.70;;;;;;4936730;29;20483;-74
2022/04/12 13:05:07;;;;;;;0.80;0.80;;;23.10;44.00;;;;;;4937034;29;20463;-75
2022/04/12 13:07:36;;;;;;;0.70;0.60;;;23.20;43.50;;;;;;4936808;29;20448;-75
2022/04/12 13:10:10;;;;;;;0.70;0.60;;;23.40;42.50;;;;;;4936882;29;20459;-75
2022/04/12 13:12:38;;;;;;;0.70;0.60;;;23.30;42.20;;;;;;4936883;29;20475;-75
2022/04/12 13:15:06;;;;;;;1.20;0.60;;;23.30;41.30;;;;;;4936881;29;20456;-75
2022/04/12 13:17:33;;;;;;;0.70;0.70;;;23.60;42.60;;;;;;4936747;29;20460;-76
2022/04/12 13:19:59;;;;;;;0.70;0.60;;;23.40;42.30;;;;;;4936637;29;20455;-75
2022/04/12 13:22:28;;;;;;;0.70;0.60;;;23.20;42.10;;;;;;4936681;29;20471;-76
2022/04/12 13:24:55;;;;;;;0.80;0.63;;;23.40;42.60;;;;;;4936318;29;20910;-76
2022/04/12 13:27:23;;;;;;;0.80;0.60;;;23.50;43.10;;;;;;4936723;29;20507;-76
2022/04/12 13:29:50;;;;;;;0.80;0.60;;;23.40;43.10;;;;;;4936260;29;20835;-77
2022/04/12 13:32:16;;;;;;;0.60;0.50;;;23.40;43.50;;;;;;4937110;29;20475;-76
2022/04/12 13:34:43;;;;;;;0.60;0.50;;;23.30;43.50;;;;;;4936775;29;20502;-76
2022/04/12 13:37:10;;;;;;;0.60;0.50;;;23.10;42.60;;;;;;4936725;29;20507;-76
2022/04/12 13:39:38;;;;;;;0.70;0.60;;;23.30;42.70;;;;;;4936354;29;20444;-76
2022/04/12 13:42:06;;;;;;;0.80;0.70;;;23.20;42.80;;;;;;4936327;29;20983;-76
2022/04/12 13:44:33;;;;;;;0.77;0.60;;;23.10;42.10;;;;;;4936592;29;20578;-75
2022/04/12 13:47:00;;;;;;;0.70;0.60;;;22.90;43.10;;;;;;4936850;29;20451;-75
2022/04/12 13:49:27;;;;;;;0.70;0.57;;;23.00;42.10;;;;;;4936498;29;20543;-75
2022/04/12 13:51:54;;;;;;;0.60;0.60;;;22.90;42.10;;;;;;4936471;29;20839;-75
2022/04/12 13:54:21;;;;;;;0.70;0.60;;;22.80;42.10;;;;;;4936435;29;20456;-75
2022/04/12 13:56:49;;;;;;;0.70;0.60;;;22.90;42.30;;;;;;4936105;29;20444;-75
2022/04/12 13:59:16;;;;;;;0.60;0.60;;;23.20;42.00;;;;;;4936081;29;20452;-75
2022/04/12 14:01:42;;;;;;;0.70;0.50;;;23.40;42.10;;;;;;4935606;29;21023;-76
2022/04/12 14:04:09;;;;;;;0.60;0.50;;;23.50;41.90;;;;;;4936019;29;20484;-75
2022/04/12 14:06:36;;;;;;;0.70;0.60;;;23.50;41.90;;;;;;4935112;29;20868;-76
2022/04/12 14:09:04;;;;;;;0.60;0.50;;;23.40;40.80;;;;;;4936171;29;21022;-75
2022/04/12 14:11:31;;;;;;;0.60;0.50;;;23.60;41.60;;;;;;4935684;29;20563;-75
2022/04/12 14:13:59;;;;;;;0.60;0.60;;;23.70;41.70;;;;;;4936024;29;20867;-75
2022/04/12 14:16:27;;;;;;;1.30;0.60;;;23.70;40.70;;;;;;4936048;29;20497;-75
2022/04/12 14:18:53;;;;;;;1.23;0.50;;;23.70;41.10;;;;;;4936201;29;20483;-75
2022/04/12 14:21:20;;;;;;;0.70;0.60;;;23.80;40.80;;;;;;4936173;29;20515;-74
2022/04/12 14:23:47;;;;;;;0.70;0.60;;;23.60;40.80;;;;;;4935947;29;20487;-74
2022/04/12 14:26:14;;;;;;;0.70;0.60;;;23.50;40.40;;;;;;4936100;29;20510;-75
2022/04/12 14:28:41;;;;;;;0.60;0.50;;;23.80;41.20;;;;;;4936316;29;20456;-75
2022/04/12 14:31:10;;;;;;;0.60;0.50;;;23.80;40.90;;;;;;4936320;29;20472;-75
2022/04/12 14:33:38;;;;;;;0.70;0.60;;;23.70;39.80;;;;;;4935992;29;20451;-76
2022/04/12 14:36:07;;;;;;;0.70;0.50;;;23.80;40.80;;;;;;4935921;29;20455;-75
2022/04/12 14:38:34;;;;;;;0.63;0.50;;;23.90;40.90;;;;;;4935727;29;20509;-76
2022/04/12 14:41:01;;;;;;;0.67;0.50;;;23.80;40.50;;;;;;4935954;29;20471;-76
2022/04/12 14:43:28;;;;;;;0.70;0.50;;;23.80;40.30;;;;;;4936107;29;20535;-76
2022/04/12 14:45:55;;;;;;;0.67;0.60;;;23.90;40.30;;;;;;4936027;29;20451;-76
2022/04/12 14:48:23;;;;;;;0.60;0.53;;;23.70;40.70;;;;;;4936411;29;20475;-76
2022/04/12 14:50:50;;;;;;;0.70;0.60;;;23.70;40.90;;;;;;4935935;29;20472;-75
2022/04/12 14:53:19;;;;;;;0.70;0.60;;;23.60;40.80;;;;;;4935768;29;20451;-76
2022/04/12 14:55:47;;;;;;;0.70;0.50;;;23.60;40.20;;;;;;4935618;29;20559;-76
2022/04/12 14:58:14;;;;;;;0.60;0.50;;;23.60;40.70;;;;;;4935684;29;20610;-75
2022/04/12 15:00:41;;;;;;;0.60;0.60;;;23.40;40.70;;;;;;4935633;29;20452;-75
2022/04/12 15:03:07;;;;;;;1.83;0.60;;;23.40;40.70;;;;;;4935608;29;20456;-75
2022/04/12 15:05:36;;;;;;;0.70;0.60;;;23.40;41.00;;;;;;4935776;29;20829;-75
2022/04/12 15:08:03;;;;;;;0.60;0.50;;;23.30;40.50;;;;;;4935703;29;20479;-75
2022/04/12 15:10:29;;;;;;;1.10;0.60;;;23.20;40.20;;;;;;4935425;29;20948;-75
2022/04/12 15:12:56;;;;;;;0.90;0.60;;;23.30;41.60;;;;;;4935666;29;20456;-76
2022/04/12 15:17:58;;;;;;;0.60;0.50;;;23.50;40.90;;;;;;5034225;23;20511;-74
2022/04/12 15:20:25;;;;;;;0.70;0.50;;;23.40;41.30;;;;;;4939542;29;20450;-75
2022/04/12 15:22:53;;;;;;;0.60;0.50;;;23.20;41.50;;;;;;4939103;29;20781;-74
2022/04/12 15:25:20;;;;;;;0.80;0.60;;;23.10;41.90;;;;;;4938728;29;21019;-75
2022/04/12 15:27:46;;;;;;;0.67;0.50;;;22.80;41.50;;;;;;4939002;29;21010;-74
2022/04/12 15:30:13;;;;;;;0.80;0.50;;;22.70;42.30;;;;;;4939031;29;20886;-74
2022/04/12 15:32:42;;;;;;;0.60;0.57;;;22.80;42.70;;;;;;4938618;29;20452;-72
2022/04/12 15:35:10;;;;;;;0.70;0.70;;;22.70;42.30;;;;;;4939510;29;20451;-73
2022/04/12 15:37:37;;;;;;;0.60;0.50;;;22.40;42.50;;;;;;4938404;29;20987;-73
2022/04/12 15:40:08;;;;;;;0.70;0.50;;;22.40;43.30;;;;;;4938924;29;20455;-75
2022/04/12 15:42:35;;;;;;;1.40;0.60;;;22.40;43.40;;;;;;4942134;29;20448;-75
2022/04/12 15:45:03;;;;;;;0.70;0.60;;;22.30;43.50;;;;;;4940803;29;20539;-75
2022/04/12 15:47:29;;;;;;;0.60;0.50;;;22.30;43.60;;;;;;4940077;29;20479;-73
2022/04/12 15:49:56;;;;;;;0.80;0.60;;;22.30;44.10;;;;;;4939673;29;20448;-74
2022/04/12 15:52:23;;;;;;;0.70;0.60;;;22.20;44.30;;;;;;4950188;29;20487;-74
2022/04/12 15:54:50;;;;;;;0.93;0.83;;;22.20;44.40;;;;;;4954761;28;20456;-74
2022/04/12 15:57:18;;;;;;;0.63;0.57;;;22.10;44.20;;;;;;4960876;29;20886;-74